createdAt,value
2022-11-27T00:00:04.872Z,4.38
2022-11-27T00:02:35.309Z,4.10
2022-11-27T00:05:05.456Z,4.45
2022-11-27T00:07:33.239Z,4.40
2022-11-27T00:10:00.465Z,4.32
2022-11-27T00:12:27.705Z,4.38
2022-11-27T00:14:55.781Z,4.90
2022-11-27T00:17:23.334Z,4.07
2022-11-27T00:19:54.309Z,4.40
2022-11-27T00:22:21.617Z,4.32
2022-11-27T00:24:48.687Z,4.40
2022-11-27T00:27:16.045Z,4.53
2022-11-27T00:29:43.761Z,4.28
2022-11-27T00:32:11.852Z,4.57
2022-11-27T00:34:39.438Z,4.60
2022-11-27T00:37:07.325Z,4.40
2022-11-27T00:39:38.086Z,4.20
2022-11-27T00:42:05.247Z,4.30
2022-11-27T00:44:32.373Z,4.15
2022-11-27T00:46:59.894Z,4.13
2022-11-27T00:49:27.417Z,4.65
2022-11-27T00:51:54.789Z,4.18
2022-11-27T00:54:22.963Z,4.22
2022-11-27T00:56:50.436Z,3.30
2022-11-27T00:59:17.900Z,4.13
2022-11-27T01:01:46.393Z,4.05
2022-11-27T01:04:14.604Z,3.47
2022-11-27T01:06:42.303Z,4.78
2022-11-27T01:09:10.751Z,4.50
2022-11-27T01:11:38.615Z,4.43
2022-11-27T01:14:07.121Z,4.57
2022-11-27T01:16:34.313Z,4.20
2022-11-27T01:19:02.000Z,4.28
2022-11-27T01:21:30.409Z,4.70
2022-11-27T01:23:57.979Z,3.80
2022-11-27T01:26:25.103Z,4.65
2022-11-27T01:28:53.478Z,4.57
2022-11-27T01:31:22.325Z,4.63
2022-11-27T01:33:52.831Z,4.32
2022-11-27T01:36:20.312Z,4.25
2022-11-27T01:38:47.835Z,4.90
2022-11-27T01:41:17.536Z,4.90
2022-11-27T01:43:50.915Z,4.57
2022-11-27T01:46:33.080Z,4.93
2022-11-27T01:49:20.450Z,4.57
2022-11-27T01:51:51.746Z,5.63
2022-11-27T01:54:21.657Z,4.25
2022-11-27T01:56:50.214Z,5.00
2022-11-27T01:59:18.164Z,5.05
2022-11-27T02:01:45.432Z,3.45
2022-11-27T02:04:12.706Z,4.82
2022-11-27T02:06:39.966Z,4.50
2022-11-27T02:09:07.159Z,4.35
2022-11-27T02:11:43.863Z,4.43
2022-11-27T02:14:11.236Z,4.22
2022-11-27T02:16:57.179Z,4.22
2022-11-27T02:19:24.558Z,4.35
2022-11-27T02:21:59.397Z,4.57
2022-11-27T02:24:33.297Z,4.20
2022-11-27T02:27:10.296Z,4.50
2022-11-27T02:29:38.738Z,5.05
2022-11-27T02:32:15.752Z,4.70
2022-11-27T02:34:48.724Z,4.53
2022-11-27T02:37:18.589Z,4.85
2022-11-27T02:40:10.086Z,4.32
2022-11-27T02:42:49.310Z,5.05
2022-11-27T02:45:19.082Z,4.95
2022-11-27T02:47:47.280Z,4.05
2022-11-27T02:50:16.830Z,4.85
2022-11-27T02:52:46.342Z,4.88
2022-11-27T02:55:16.633Z,4.43
2022-11-27T02:57:45.158Z,4.63
2022-11-27T03:00:12.912Z,4.60
2022-11-27T03:02:43.682Z,4.32
2022-11-27T03:05:13.494Z,5.05
2022-11-27T03:07:46.675Z,4.60
2022-11-27T03:10:19.836Z,4.85
2022-11-27T03:12:48.336Z,5.18
2022-11-27T03:15:15.893Z,4.50
2022-11-27T03:17:46.090Z,5.20
2022-11-27T03:20:17.286Z,5.57
2022-11-27T03:22:44.517Z,4.47
2022-11-27T03:25:11.670Z,5.47
2022-11-27T03:27:41.838Z,4.63
2022-11-27T03:30:11.335Z,4.55
2022-11-27T03:32:39.788Z,4.70
2022-11-27T03:35:08.777Z,5.00
2022-11-27T03:37:36.592Z,4.93
2022-11-27T03:40:07.337Z,4.97
2022-11-27T03:42:37.629Z,5.47
2022-11-27T03:45:13.461Z,4.97
2022-11-27T03:47:40.908Z,6.38
2022-11-27T03:50:08.076Z,5.05
2022-11-27T03:52:50.669Z,5.50
2022-11-27T03:55:23.193Z,4.80
2022-11-27T03:57:59.199Z,5.47
2022-11-27T04:00:27.981Z,5.00
2022-11-27T04:02:55.175Z,5.15
2022-11-27T04:05:22.425Z,5.15
2022-11-27T04:07:49.715Z,5.30
2022-11-27T04:10:17.233Z,5.68
2022-11-27T04:12:44.527Z,5.05
2022-11-27T04:15:11.834Z,4.93
2022-11-27T04:17:39.064Z,4.80
2022-11-27T04:20:07.123Z,5.05
2022-11-27T04:22:34.602Z,5.03
2022-11-27T04:25:02.099Z,4.68
2022-11-27T04:27:29.343Z,5.50
2022-11-27T04:29:57.605Z,4.03
2022-11-27T04:32:24.865Z,4.95
2022-11-27T04:34:51.968Z,5.18
2022-11-27T04:37:19.070Z,5.75
2022-11-27T04:39:46.218Z,5.50
2022-11-27T04:42:13.286Z,6.07
2022-11-27T04:44:40.697Z,6.10
2022-11-27T04:47:07.966Z,6.47
2022-11-27T04:49:35.410Z,6.97
2022-11-27T04:52:02.904Z,7.55
2022-11-27T04:54:30.029Z,7.25
2022-11-27T04:56:57.159Z,7.18
2022-11-27T04:59:24.436Z,6.90
2022-11-27T05:01:51.595Z,6.30
2022-11-27T05:04:20.163Z,6.85
2022-11-27T05:06:47.739Z,4.90
2022-11-27T05:09:14.872Z,6.22
2022-11-27T05:11:42.320Z,5.80
2022-11-27T05:14:19.962Z,6.05
2022-11-27T05:16:48.917Z,5.75
2022-11-27T05:21:43.895Z,5.22
2022-11-27T05:24:11.601Z,5.53
2022-11-27T05:26:39.368Z,5.75
2022-11-27T05:29:07.216Z,5.50
2022-11-27T05:31:35.102Z,5.97
2022-11-27T05:34:03.179Z,6.32
2022-11-27T05:36:31.252Z,4.53
2022-11-27T05:38:59.496Z,7.30
2022-11-27T05:41:26.781Z,6.45
2022-11-27T05:43:54.244Z,5.75
2022-11-27T05:46:22.753Z,5.68
2022-11-27T05:48:50.022Z,5.70
2022-11-27T05:51:17.573Z,5.95
2022-11-27T05:53:44.986Z,5.75
2022-11-27T05:56:13.934Z,5.60
2022-11-27T05:58:41.911Z,5.45
2022-11-27T06:01:09.223Z,5.90
2022-11-27T06:03:39.050Z,5.80
2022-11-27T06:06:07.772Z,6.43
2022-11-27T06:08:38.778Z,6.25
2022-11-27T06:11:16.806Z,5.65
2022-11-27T06:13:44.900Z,6.07
2022-11-27T06:16:13.734Z,4.57
2022-11-27T06:18:41.269Z,5.88
2022-11-27T06:21:09.261Z,5.32
2022-11-27T06:23:36.500Z,5.80
2022-11-27T06:26:14.654Z,6.30
2022-11-27T06:28:42.174Z,6.38
2022-11-27T06:31:17.703Z,7.93
2022-11-27T06:33:45.992Z,7.15
2022-11-27T06:36:13.355Z,12.18
2022-11-27T06:38:40.680Z,9.68
2022-11-27T06:41:10.203Z,7.85
2022-11-27T06:43:37.727Z,6.15
2022-11-27T06:46:06.647Z,6.35
2022-11-27T06:48:34.525Z,6.43
2022-11-27T06:51:02.608Z,6.03
2022-11-27T06:53:30.367Z,6.05
2022-11-27T06:55:57.617Z,6.28
2022-11-27T06:58:30.628Z,5.93
2022-11-27T07:00:59.347Z,7.03
2022-11-27T07:03:26.604Z,7.57
2022-11-27T07:05:54.246Z,6.40
2022-11-27T07:08:22.375Z,6.05
2022-11-27T07:10:49.504Z,5.93
2022-11-27T07:13:17.013Z,6.15
2022-11-27T07:15:44.599Z,6.90
2022-11-27T07:18:11.729Z,6.13
2022-11-27T07:20:39.533Z,6.25
2022-11-27T07:23:07.269Z,6.43
2022-11-27T07:25:34.482Z,6.25
2022-11-27T07:28:01.931Z,6.65
2022-11-27T07:30:29.191Z,7.38
2022-11-27T07:32:56.617Z,6.97
2022-11-27T07:35:23.786Z,6.80
2022-11-27T07:37:51.164Z,7.57
2022-11-27T07:40:18.540Z,6.75
2022-11-27T07:42:45.680Z,6.75
2022-11-27T07:45:12.836Z,6.25
2022-11-27T07:47:40.017Z,6.40
2022-11-27T07:50:09.766Z,6.03
2022-11-27T07:52:41.565Z,6.38
2022-11-27T07:55:09.679Z,6.75
2022-11-27T07:57:37.413Z,5.70
2022-11-27T08:00:05.292Z,8.85
2022-11-27T08:02:32.879Z,5.72
2022-11-27T08:05:00.361Z,7.18
2022-11-27T08:07:30.978Z,6.97
2022-11-27T08:09:58.371Z,7.82
2022-11-27T08:12:26.472Z,7.55
2022-11-27T08:14:53.591Z,6.25
2022-11-27T08:17:20.800Z,6.30
2022-11-27T08:19:52.786Z,6.63
2022-11-27T08:22:20.762Z,5.90
2022-11-27T08:24:48.583Z,6.43
2022-11-27T08:27:18.710Z,6.30
2022-11-27T08:29:46.092Z,6.00
2022-11-27T08:32:13.448Z,9.07
2022-11-27T08:34:41.029Z,6.82
2022-11-27T08:37:08.675Z,6.10
2022-11-27T08:39:36.198Z,6.25
2022-11-27T08:42:03.771Z,8.18
2022-11-27T08:44:30.986Z,9.15
2022-11-27T08:46:58.136Z,7.50
2022-11-27T08:49:26.897Z,7.10
2022-11-27T08:51:54.230Z,7.60
2022-11-27T08:54:21.391Z,6.55
2022-11-27T08:56:48.495Z,13.80
2022-11-27T08:59:16.306Z,7.47
2022-11-27T09:01:43.809Z,7.57
2022-11-27T09:04:11.240Z,5.85
2022-11-27T09:06:40.782Z,6.72
2022-11-27T09:09:08.882Z,6.55
2022-11-27T09:11:38.193Z,6.38
2022-11-27T09:14:05.953Z,7.57
2022-11-27T09:16:33.447Z,6.78
2022-11-27T09:19:01.313Z,6.22
2022-11-27T09:21:32.872Z,7.95
2022-11-27T09:24:01.931Z,7.13
2022-11-27T09:28:58.276Z,7.43
2022-11-27T09:31:26.351Z,7.07
2022-11-27T09:33:53.950Z,5.07
2022-11-27T09:36:22.586Z,5.88
2022-11-27T09:38:50.193Z,6.00
2022-11-27T09:41:17.917Z,4.57
2022-11-27T09:43:56.996Z,6.18
2022-11-27T09:46:38.583Z,5.53
2022-11-27T09:49:08.255Z,5.88
2022-11-27T09:51:48.007Z,6.38
2022-11-27T09:54:26.611Z,5.55
2022-11-27T09:56:54.897Z,5.80
2022-11-27T09:59:23.967Z,6.85
2022-11-27T10:01:51.746Z,7.60
2022-11-27T10:04:20.855Z,7.32
2022-11-27T10:06:48.271Z,7.75
2022-11-27T10:09:21.524Z,6.20
2022-11-27T10:11:55.346Z,7.38
2022-11-27T10:14:41.246Z,8.55
2022-11-27T10:17:15.851Z,7.85
2022-11-27T10:19:50.377Z,9.40
2022-11-27T10:22:47.143Z,9.40
2022-11-27T10:25:14.272Z,8.75
2022-11-27T10:27:45.401Z,7.97
2022-11-27T10:30:17.379Z,7.53
2022-11-27T10:32:55.219Z,10.75
2022-11-27T10:35:27.912Z,9.50
2022-11-27T10:38:06.479Z,8.40
2022-11-27T10:40:39.814Z,10.00
2022-11-27T10:43:10.871Z,7.57
2022-11-27T10:45:43.867Z,7.32
2022-11-27T10:48:11.792Z,6.10
2022-11-27T10:50:39.393Z,9.15
2022-11-27T10:53:08.513Z,11.68
2022-11-27T10:55:38.702Z,6.55
2022-11-27T10:58:25.343Z,6.30
2022-11-27T11:01:09.124Z,6.65
2022-11-27T11:03:36.807Z,7.90
2022-11-27T11:06:23.245Z,6.32
2022-11-27T11:09:05.335Z,6.40
2022-11-27T11:11:33.140Z,6.32
2022-11-27T11:14:00.584Z,11.95
2022-11-27T11:16:34.861Z,7.75
2022-11-27T11:19:03.917Z,6.70
2022-11-27T11:21:31.293Z,5.60
2022-11-27T11:23:58.507Z,6.60
2022-11-27T11:26:28.390Z,6.90
2022-11-27T11:28:57.664Z,5.57
2022-11-27T11:31:30.080Z,5.93
2022-11-27T11:33:59.231Z,7.80
2022-11-27T11:38:53.589Z,6.93
2022-11-27T11:41:21.753Z,5.68
2022-11-27T11:43:56.597Z,4.53
2022-11-27T11:46:25.549Z,5.75
2022-11-27T11:48:54.758Z,5.88
2022-11-27T11:54:21.396Z,5.75
2022-11-27T11:56:52.470Z,5.97
2022-11-27T11:59:25.684Z,5.60
2022-11-27T12:01:54.543Z,5.60
2022-11-27T12:04:22.154Z,5.53
2022-11-27T12:07:01.618Z,5.72
2022-11-27T12:09:35.290Z,5.55
2022-11-27T12:12:02.743Z,5.45
2022-11-27T12:14:47.581Z,5.28
2022-11-27T12:17:23.532Z,5.70
2022-11-27T12:19:54.036Z,4.00
2022-11-27T12:22:37.681Z,4.75
2022-11-27T12:25:11.084Z,6.05
2022-11-27T12:27:38.188Z,5.78
2022-11-27T12:30:12.225Z,5.78
2022-11-27T12:33:00.659Z,5.57
2022-11-27T12:35:38.110Z,5.30
2022-11-27T12:38:17.380Z,5.10
2022-11-27T12:40:53.849Z,5.22
2022-11-27T12:43:25.816Z,5.43
2022-11-27T12:45:56.009Z,5.07
2022-11-27T12:48:55.758Z,4.45
2022-11-27T12:51:36.622Z,5.18
2022-11-27T12:54:10.007Z,4.90
2022-11-27T12:56:40.556Z,5.88
2022-11-27T12:59:25.681Z,5.80
2022-11-27T13:02:23.741Z,5.88
2022-11-27T13:05:02.400Z,5.82
2022-11-27T13:07:40.192Z,5.90
2022-11-27T13:10:10.611Z,5.82
2022-11-27T13:12:44.538Z,6.10
2022-11-27T13:15:20.779Z,6.22
2022-11-27T13:17:49.653Z,6.40
2022-11-27T13:22:44.149Z,6.13
2022-11-27T13:25:13.239Z,6.53
2022-11-27T13:27:43.081Z,6.20
2022-11-27T13:30:37.679Z,5.82
2022-11-27T13:33:07.157Z,6.25
2022-11-27T13:35:34.267Z,6.43
2022-11-27T13:38:04.685Z,6.80
2022-11-27T13:40:36.651Z,5.85
2022-11-27T13:43:06.599Z,5.90
2022-11-27T13:45:36.594Z,6.45
2022-11-27T13:48:18.093Z,6.15
2022-11-27T13:50:45.850Z,6.07
2022-11-27T13:53:13.580Z,6.82
2022-11-27T13:55:52.211Z,6.43
2022-11-27T13:58:30.114Z,6.03
2022-11-27T14:00:57.590Z,6.30
2022-11-27T14:03:26.637Z,6.13
2022-11-27T14:05:54.360Z,5.45
2022-11-27T14:08:31.857Z,5.95
2022-11-27T14:11:09.555Z,6.30
2022-11-27T14:13:41.882Z,6.90
2022-11-27T14:16:19.910Z,6.22
2022-11-27T14:18:54.206Z,5.68
2022-11-27T14:21:41.887Z,4.82
2022-11-27T14:24:27.802Z,4.93
2022-11-27T14:26:55.768Z,5.60
2022-11-27T14:29:24.548Z,5.90
2022-11-27T14:32:02.023Z,7.95
2022-11-27T14:34:30.469Z,6.13
2022-11-27T14:36:58.454Z,5.93
2022-11-27T14:39:28.441Z,6.00
2022-11-27T14:41:56.570Z,15.18
2022-11-27T14:44:23.994Z,17.23
2022-11-27T14:46:52.132Z,8.60
2022-11-27T14:51:47.993Z,6.47
2022-11-27T14:54:20.370Z,5.95
2022-11-27T14:56:48.212Z,5.43
2022-11-27T14:59:16.439Z,5.50
2022-11-27T15:01:44.146Z,8.45
2022-11-27T15:04:26.993Z,5.73
2022-11-27T15:06:55.444Z,11.73
2022-11-27T15:09:43.244Z,4.53
2022-11-27T15:12:16.699Z,6.50
2022-11-27T15:14:51.682Z,5.50
2022-11-27T15:17:23.396Z,6.30
2022-11-27T15:19:51.195Z,7.18
2022-11-27T15:22:18.728Z,5.78
2022-11-27T15:24:45.964Z,7.60
2022-11-27T15:27:13.135Z,8.18
2022-11-27T15:29:43.260Z,6.65
2022-11-27T15:32:23.138Z,8.80
2022-11-27T15:34:52.958Z,8.93
2022-11-27T15:37:24.983Z,6.55
2022-11-27T15:39:55.443Z,7.35
2022-11-27T15:42:23.336Z,7.07
2022-11-27T15:44:53.545Z,6.43
2022-11-27T15:47:20.632Z,7.10
2022-11-27T15:49:50.993Z,7.68
2022-11-27T15:52:18.385Z,7.47
2022-11-27T15:54:45.953Z,7.97
2022-11-27T15:57:13.435Z,7.40
2022-11-27T15:59:43.715Z,7.07
2022-11-27T16:02:17.282Z,6.07
2022-11-27T16:04:45.293Z,23.15
2022-11-27T16:07:12.577Z,10.07
2022-11-27T16:09:40.151Z,8.50
2022-11-27T16:12:07.577Z,7.25
2022-11-27T16:14:34.734Z,8.90
2022-11-27T16:17:02.229Z,9.55
2022-11-27T16:19:30.096Z,9.35
2022-11-27T16:21:57.813Z,7.80
2022-11-27T16:24:25.338Z,6.85
2022-11-27T16:26:52.431Z,5.85
2022-11-27T16:29:19.831Z,8.95
2022-11-27T16:31:47.448Z,14.10
2022-11-27T16:34:15.950Z,9.50
2022-11-27T16:36:43.886Z,7.45
2022-11-27T16:39:12.052Z,11.70
2022-11-27T16:41:39.796Z,5.93
2022-11-27T16:44:11.247Z,13.70
2022-11-27T16:46:39.105Z,9.30
2022-11-27T16:49:06.861Z,8.47
2022-11-27T16:51:35.236Z,9.35
2022-11-27T16:54:04.166Z,8.30
2022-11-27T16:56:32.800Z,11.02
2022-11-27T16:59:03.107Z,6.63
2022-11-27T17:01:32.732Z,8.65
2022-11-27T17:04:00.407Z,10.20
2022-11-27T17:06:28.721Z,7.88
2022-11-27T17:08:59.932Z,7.70
2022-11-27T17:11:28.975Z,7.68
2022-11-27T17:13:57.603Z,8.27
2022-11-27T17:16:25.079Z,7.70
2022-11-27T17:18:52.477Z,6.65
2022-11-27T17:21:24.252Z,12.13
2022-11-27T17:23:51.916Z,10.65
2022-11-27T17:26:20.177Z,8.45
2022-11-27T17:28:47.693Z,11.05
2022-11-27T17:31:16.130Z,8.98
2022-11-27T17:33:43.632Z,9.50
2022-11-27T17:36:11.312Z,9.30
2022-11-27T17:38:38.786Z,10.02
2022-11-27T17:41:08.029Z,9.73
2022-11-27T17:43:36.260Z,8.80
2022-11-27T17:46:13.762Z,7.40
2022-11-27T17:48:42.118Z,8.95
2022-11-27T17:53:38.922Z,13.85
2022-11-27T17:56:07.779Z,6.80
2022-11-27T17:58:35.991Z,7.82
2022-11-27T18:01:05.126Z,5.32
2022-11-27T18:06:04.835Z,8.77
2022-11-27T18:08:34.082Z,7.78
2022-11-27T18:11:06.792Z,6.30
2022-11-27T18:13:34.682Z,8.48
2022-11-27T18:16:05.825Z,8.10
2022-11-27T18:18:33.508Z,9.43
2022-11-27T18:21:05.898Z,7.05
2022-11-27T18:23:36.215Z,10.20
2022-11-27T18:26:07.813Z,5.93
2022-11-27T18:28:35.383Z,7.78
2022-11-27T18:31:10.969Z,7.22
2022-11-27T18:33:39.118Z,7.85
2022-11-27T18:36:08.263Z,6.13
2022-11-27T18:38:37.388Z,7.05
2022-11-27T18:41:08.901Z,7.57
2022-11-27T18:43:36.992Z,6.20
2022-11-27T18:46:05.637Z,6.35
2022-11-27T18:48:33.760Z,5.38
2022-11-27T18:51:01.959Z,6.28
2022-11-27T18:53:29.508Z,8.00
2022-11-27T18:56:04.521Z,10.82
2022-11-27T18:58:35.067Z,10.73
2022-11-27T19:01:03.327Z,8.77
2022-11-27T19:03:31.329Z,13.20
2022-11-27T19:06:03.628Z,13.07
2022-11-27T19:08:31.540Z,15.18
2022-11-27T19:11:03.487Z,13.15
2022-11-27T19:13:30.900Z,15.10
2022-11-27T19:15:58.226Z,13.30
2022-11-27T19:18:25.940Z,12.68
2022-11-27T19:20:55.083Z,17.05
2022-11-27T19:23:22.603Z,13.75
2022-11-27T19:25:50.079Z,9.75
2022-11-27T19:28:17.853Z,11.00
2022-11-27T19:30:45.393Z,7.85
2022-11-27T19:33:13.556Z,17.20
2022-11-27T19:35:42.295Z,15.05
2022-11-27T19:38:09.999Z,13.60
2022-11-27T19:40:39.942Z,9.87
2022-11-27T19:43:07.546Z,16.45
2022-11-27T19:45:35.798Z,16.38
2022-11-27T19:48:03.565Z,9.85
2022-11-27T19:50:31.164Z,10.32
2022-11-27T19:52:59.597Z,8.45
2022-11-27T19:55:27.571Z,8.93
2022-11-27T19:57:55.157Z,9.43
2022-11-27T20:00:23.022Z,12.55
2022-11-27T20:02:51.066Z,9.52
2022-11-27T20:05:18.900Z,10.73
2022-11-27T20:07:46.777Z,8.35
2022-11-27T20:10:15.007Z,25.77
2022-11-27T20:12:42.659Z,12.05
2022-11-27T20:15:14.640Z,12.57
2022-11-27T20:17:42.537Z,14.55
2022-11-27T20:20:10.959Z,9.47
2022-11-27T20:22:38.503Z,12.93
2022-11-27T20:25:21.753Z,9.77
2022-11-27T20:27:49.191Z,8.30
2022-11-27T20:30:17.025Z,10.90
2022-11-27T20:32:45.099Z,8.87
2022-11-27T20:35:12.820Z,8.82
2022-11-27T20:37:40.392Z,7.68
2022-11-27T20:40:09.327Z,8.20
2022-11-27T20:42:36.776Z,9.88
2022-11-27T20:45:05.364Z,10.93
2022-11-27T20:47:32.675Z,8.77
2022-11-27T20:50:03.061Z,10.07
2022-11-27T20:52:31.594Z,7.53
2022-11-27T20:54:59.343Z,8.73
2022-11-27T20:57:27.156Z,8.32
2022-11-27T20:59:55.500Z,7.82
2022-11-27T21:02:23.306Z,6.55
2022-11-27T21:04:51.008Z,9.07
2022-11-27T21:07:19.522Z,15.02
2022-11-27T21:09:48.572Z,17.45
2022-11-27T21:12:16.803Z,11.68
2022-11-27T21:14:44.438Z,8.50
2022-11-27T21:17:11.595Z,9.48
2022-11-27T21:19:39.775Z,7.95
2022-11-27T21:22:07.402Z,9.73
2022-11-27T21:24:34.769Z,11.18
2022-11-27T21:27:02.441Z,9.25
2022-11-27T21:29:30.804Z,13.48
2022-11-27T21:31:58.129Z,12.60
2022-11-27T21:34:25.646Z,11.05
2022-11-27T21:36:52.838Z,8.93
2022-11-27T21:39:21.019Z,9.38
2022-11-27T21:41:49.428Z,8.38
2022-11-27T21:44:17.965Z,10.35
2022-11-27T21:46:45.896Z,7.75
2022-11-27T21:49:13.938Z,8.93
2022-11-27T21:51:41.681Z,8.85
2022-11-27T21:54:11.234Z,8.68
2022-11-27T21:56:40.265Z,8.93
2022-11-27T21:59:08.250Z,9.35
2022-11-27T22:01:35.671Z,8.03
2022-11-27T22:04:03.110Z,7.97
2022-11-27T22:06:34.752Z,7.45
2022-11-27T22:09:01.971Z,7.95
2022-11-27T22:11:32.759Z,7.32
2022-11-27T22:14:04.627Z,8.15
2022-11-27T22:16:33.783Z,8.63
2022-11-27T22:21:28.857Z,9.18
2022-11-27T22:23:56.265Z,8.70
2022-11-27T22:26:24.070Z,8.43
2022-11-27T22:28:51.362Z,7.97
2022-11-27T22:31:22.736Z,8.38
2022-11-27T22:33:50.164Z,8.88
2022-11-27T22:36:31.186Z,7.65
2022-11-27T22:38:59.304Z,8.35
2022-11-27T22:41:27.890Z,8.95
2022-11-27T22:43:55.029Z,6.50
2022-11-27T22:46:25.288Z,9.18
2022-11-27T22:48:58.168Z,9.80
2022-11-27T22:51:26.544Z,10.70
2022-11-27T22:53:54.020Z,10.70
2022-11-27T22:56:21.210Z,13.10
2022-11-27T22:58:48.646Z,9.90
2022-11-27T23:01:17.728Z,10.98
2022-11-27T23:03:45.199Z,11.63
2022-11-27T23:06:13.303Z,9.85
2022-11-27T23:08:41.052Z,11.60
2022-11-27T23:11:09.244Z,9.90
2022-11-27T23:13:36.966Z,9.15
2022-11-27T23:16:06.118Z,9.05
2022-11-27T23:18:34.243Z,10.80
2022-11-27T23:21:07.873Z,10.35
2022-11-27T23:23:35.670Z,10.60
2022-11-27T23:26:04.305Z,9.38
2022-11-27T23:28:32.117Z,8.32
2022-11-27T23:31:28.802Z,11.10
2022-11-27T23:33:55.154Z,9.90
2022-11-27T23:36:22.723Z,11.50
2022-11-27T23:38:49.917Z,10.27
2022-11-27T23:41:21.185Z,13.00
2022-11-27T23:43:48.925Z,13.07
2022-11-27T23:46:16.987Z,16.48
2022-11-27T23:48:44.344Z,13.02
2022-11-27T23:51:13.744Z,12.27
2022-11-27T23:53:41.220Z,9.27
2022-11-27T23:56:09.547Z,8.82
2022-11-27T23:58:36.880Z,8.05
